Time;durP1;ratioP1;P1;durP2;ratioP2;P2;SDS_P1;SDS_P2;PMS_P1;PMS_P2;Temp;Humidity;BMP_temperature;BMP_pressure;BME280_temperature;BME280_humidity;BME280_pressure;Samples;Min_cycle;Max_cycle;Signal;HPM_P1;HPM_P2
2022/05/11 00:00:46;;;;;;;3.80;3.50;;;18.90;99.90;;;;;;7387959;19;20309;-82
2022/05/11 00:03:12;;;;;;;3.28;3.08;;;19.00;99.90;;;;;;7393724;19;20388;-79
2022/05/11 00:05:38;;;;;;;3.97;3.50;;;19.00;99.90;;;;;;7393122;19;20360;-82
2022/05/11 00:08:04;;;;;;;3.83;3.50;;;19.00;99.90;;;;;;7391160;19;20991;-83
2022/05/11 00:10:30;;;;;;;3.35;3.05;;;19.10;99.90;;;;;;7392632;19;20336;-80
2022/05/11 00:12:57;;;;;;;3.40;3.10;;;19.10;99.90;;;;;;7391423;19;20349;-83
2022/05/11 00:15:23;;;;;;;3.50;3.00;;;19.00;99.90;;;;;;7389325;19;20328;-80
2022/05/11 00:17:49;;;;;;;3.60;3.30;;;19.00;99.90;;;;;;7391000;19;20423;-80
2022/05/11 00:20:15;;;;;;;3.40;3.10;;;19.00;99.90;;;;;;7391271;19;20338;-82
2022/05/11 00:22:40;;;;;;;3.88;3.30;;;19.00;99.90;;;;;;7389301;19;20341;-83
2022/05/11 00:25:07;;;;;;;4.17;3.53;;;19.00;99.90;;;;;;7388686;19;20412;-82
2022/05/11 00:27:32;;;;;;;3.92;3.60;;;19.00;99.90;;;;;;7386389;19;20341;-87
2022/05/11 00:29:58;;;;;;;3.90;3.60;;;18.90;99.90;;;;;;7387545;19;20449;-81
2022/05/11 00:32:25;;;;;;;3.80;3.50;;;18.90;99.90;;;;;;7400516;19;20356;-82
2022/05/11 00:34:51;;;;;;;3.83;3.53;;;18.90;99.90;;;;;;7402655;19;20340;-79
2022/05/11 00:37:17;;;;;;;3.80;3.50;;;18.90;99.90;;;;;;7393292;19;20340;-83
2022/05/11 00:39:43;;;;;;;4.32;3.67;;;18.90;99.90;;;;;;7396486;19;20839;-81
2022/05/11 00:42:09;;;;;;;3.50;3.20;;;18.90;99.90;;;;;;7395607;19;20377;-78
2022/05/11 00:44:35;;;;;;;3.70;3.00;;;18.90;99.90;;;;;;7394326;19;20368;-80
2022/05/11 00:47:28;;;;;;;6.20;3.20;;;18.90;99.90;;;;;;7394629;19;20309;-83
2022/05/11 00:49:59;;;;;;;3.58;3.28;;;18.90;99.90;;;;;;7294807;19;2004193;-82
2022/05/11 00:52:42;;;;;;;3.72;3.03;;;18.80;99.90;;;;;;7396442;19;20353;-79
2022/05/11 00:55:34;;;;;;;5.70;3.40;;;18.90;99.90;;;;;;7394705;19;20867;-81
2022/05/11 00:58:13;;;;;;;3.80;3.50;;;18.90;99.90;;;;;;7372540;19;20309;-82
2022/05/11 01:00:38;;;;;;;5.60;3.70;;;18.80;99.90;;;;;;7393238;19;20333;-85
2022/05/11 01:03:16;;;;;;;3.60;3.30;;;18.80;99.90;;;;;;7395959;19;20348;-79
2022/05/11 01:05:42;;;;;;;3.67;3.20;;;18.80;99.90;;;;;;7393459;19;20357;-78
2022/05/11 01:08:08;;;;;;;3.60;3.30;;;18.80;99.90;;;;;;7392606;19;20693;-76
2022/05/11 01:10:33;;;;;;;3.90;3.60;;;18.80;99.90;;;;;;7395388;19;20316;-85
2022/05/11 01:13:02;;;;;;;5.18;3.40;;;18.80;99.90;;;;;;7393308;19;20325;-80
2022/05/11 01:15:29;;;;;;;7.47;3.63;;;18.80;99.90;;;;;;7396333;19;20354;-77
2022/05/11 01:17:55;;;;;;;5.40;3.90;;;18.80;99.90;;;;;;7391182;19;20344;-81
2022/05/11 01:20:22;;;;;;;3.83;3.53;;;18.70;99.90;;;;;;7393129;19;20348;-81
2022/05/11 01:23:23;;;;;;;3.70;3.40;;;18.70;99.90;;;;;;7402085;19;20330;-83
2022/05/11 01:25:48;;;;;;;3.50;3.20;;;18.70;99.90;;;;;;7291964;19;2015811;-82
2022/05/11 01:28:16;;;;;;;3.57;3.27;;;18.60;99.90;;;;;;7394765;19;20337;-82
2022/05/11 01:31:06;;;;;;;3.70;3.40;;;18.60;99.90;;;;;;7395777;19;21244;-81
2022/05/11 01:33:32;;;;;;;5.38;4.00;;;18.60;99.90;;;;;;7294232;19;2004229;-85
2022/05/11 01:36:13;;;;;;;3.55;3.28;;;18.60;99.90;;;;;;7397711;19;20369;-83
2022/05/11 01:38:49;;;;;;;3.67;3.38;;;18.50;99.90;;;;;;7290043;19;2004536;-83
2022/05/11 01:41:42;;;;;;;3.65;3.35;;;18.50;99.90;;;;;;7394495;19;20342;-81
2022/05/11 01:44:12;;;;;;;3.67;3.38;;;18.40;99.90;;;;;;7395933;19;20337;-84
2022/05/11 01:46:38;;;;;;;3.72;3.42;;;18.40;99.90;;;;;;7395481;19;20345;-83
2022/05/11 01:49:04;;;;;;;4.85;3.78;;;18.30;99.90;;;;;;7391966;19;20301;-84
2022/05/11 01:51:29;;;;;;;4.50;4.10;;;18.30;99.90;;;;;;7394005;19;20344;-78
2022/05/11 01:53:55;;;;;;;3.60;3.30;;;18.30;99.90;;;;;;7395803;19;20341;-79
2022/05/11 01:56:22;;;;;;;3.20;2.90;;;18.30;99.90;;;;;;7395849;19;20682;-83
2022/05/11 01:58:48;;;;;;;3.70;3.40;;;18.30;99.90;;;;;;7394283;19;20885;-78
2022/05/11 02:01:15;;;;;;;3.70;3.15;;;18.30;99.90;;;;;;7394750;19;20340;-78
2022/05/11 02:03:41;;;;;;;3.80;3.50;;;18.20;99.90;;;;;;7396924;19;20313;-86
2022/05/11 02:08:51;;;;;;;5.43;4.10;;;18.20;99.90;;;;;;7395093;19;20328;-86
2022/05/11 02:11:17;;;;;;;4.30;3.90;;;18.10;99.90;;;;;;7392751;19;20340;-85
2022/05/11 02:13:44;;;;;;;4.20;3.90;;;18.10;99.90;;;;;;7393954;19;20311;-80
2022/05/11 02:16:10;;;;;;;4.22;3.83;;;18.00;99.90;;;;;;7390958;19;20416;-80
2022/05/11 02:18:36;;;;;;;4.40;4.00;;;18.00;99.90;;;;;;7392731;19;20844;-81
2022/05/11 02:21:02;;;;;;;4.10;3.80;;;17.90;99.90;;;;;;7395092;19;20304;-77
2022/05/11 02:23:27;;;;;;;4.13;3.73;;;17.90;99.90;;;;;;7393042;19;20638;-80
2022/05/11 02:25:53;;;;;;;3.63;3.33;;;17.90;99.90;;;;;;7394092;19;20329;-81
2022/05/11 02:28:21;;;;;;;3.90;3.50;;;17.90;99.90;;;;;;7393602;19;20369;-84
2022/05/11 02:30:47;;;;;;;3.95;3.60;;;18.00;99.90;;;;;;7396804;19;20340;-82
2022/05/11 02:33:13;;;;;;;3.90;3.60;;;18.00;99.90;;;;;;7397959;19;20328;-83
2022/05/11 02:35:38;;;;;;;6.33;3.70;;;18.00;99.90;;;;;;7396880;19;20316;-84
2022/05/11 02:38:10;;;;;;;4.17;3.77;;;18.00;99.90;;;;;;7395846;19;20356;-79
2022/05/11 02:40:37;;;;;;;3.95;3.22;;;18.00;99.90;;;;;;7395094;19;20376;-82
2022/05/11 02:43:03;;;;;;;5.70;3.50;;;18.00;99.90;;;;;;7393939;19;20400;-80
2022/05/11 02:45:29;;;;;;;3.63;3.33;;;18.00;99.90;;;;;;7393975;19;20342;-81
2022/05/11 02:47:55;;;;;;;3.70;3.35;;;18.00;99.90;;;;;;7392549;19;20328;-78
2022/05/11 02:50:28;;;;;;;3.10;2.80;;;17.90;99.90;;;;;;7394433;19;20977;-81
2022/05/11 02:52:54;;;;;;;3.53;3.22;;;17.90;99.90;;;;;;7393882;19;20341;-86
2022/05/11 02:55:20;;;;;;;3.40;3.10;;;17.90;99.90;;;;;;7394116;19;20347;-84
2022/05/11 02:57:46;;;;;;;3.50;3.20;;;17.90;99.90;;;;;;7394361;19;21064;-85
2022/05/11 03:00:13;;;;;;;3.63;3.33;;;17.90;99.90;;;;;;7397763;19;20336;-85
2022/05/11 03:02:39;;;;;;;4.38;3.67;;;17.90;99.90;;;;;;7393253;19;20344;-85
2022/05/11 03:05:05;;;;;;;4.13;3.72;;;17.80;99.90;;;;;;7392297;19;20318;-80
2022/05/11 03:07:30;;;;;;;3.80;3.50;;;17.80;99.90;;;;;;7390744;19;20344;-81
2022/05/11 03:09:56;;;;;;;3.63;3.28;;;17.70;99.90;;;;;;7393225;19;20398;-79
2022/05/11 03:12:22;;;;;;;3.03;2.83;;;17.70;99.90;;;;;;7389701;19;20316;-79
2022/05/11 03:14:53;;;;;;;3.13;2.87;;;17.70;99.90;;;;;;7370317;19;21074;-82
2022/05/11 03:17:19;;;;;;;3.22;3.03;;;17.70;99.90;;;;;;7389975;19;20351;-83
2022/05/11 03:19:45;;;;;;;3.80;3.50;;;17.70;99.90;;;;;;7393186;19;20314;-80
2022/05/11 03:22:10;;;;;;;3.40;3.20;;;17.60;99.90;;;;;;7390142;19;20346;-80
2022/05/11 03:24:36;;;;;;;6.97;6.27;;;17.60;99.90;;;;;;7389708;19;20378;-83
2022/05/11 03:27:01;;;;;;;4.63;3.78;;;17.50;99.90;;;;;;7391740;19;20349;-83
2022/05/11 03:29:28;;;;;;;3.57;3.27;;;17.50;99.90;;;;;;7393279;19;20876;-80
2022/05/11 03:34:38;;;;;;;3.47;3.17;;;17.50;99.90;;;;;;7292064;19;2004487;-80
2022/05/11 03:37:06;;;;;;;4.73;3.33;;;17.50;99.90;;;;;;7390615;19;20321;-82
2022/05/11 03:39:31;;;;;;;3.47;3.17;;;17.50;99.90;;;;;;7391837;19;20333;-82
2022/05/11 03:41:57;;;;;;;3.33;3.03;;;17.50;99.90;;;;;;7392937;19;20920;-89
2022/05/11 03:44:23;;;;;;;3.95;3.65;;;17.50;99.90;;;;;;7395771;19;20426;-83
2022/05/11 03:46:48;;;;;;;3.83;3.50;;;17.40;99.90;;;;;;7392165;19;20404;-84
2022/05/11 03:49:14;;;;;;;3.83;3.15;;;17.40;99.90;;;;;;7391519;19;20741;-83
2022/05/11 03:51:40;;;;;;;3.67;3.38;;;17.40;99.90;;;;;;7396696;19;20358;-79
2022/05/11 03:54:05;;;;;;;4.60;3.65;;;17.20;99.90;;;;;;7395283;19;20344;-83
2022/05/11 03:56:31;;;;;;;3.80;3.50;;;17.20;99.90;;;;;;7392606;19;20366;-83
2022/05/11 03:58:57;;;;;;;4.47;3.40;;;17.20;99.90;;;;;;7393792;19;20329;-80
2022/05/11 04:01:22;;;;;;;3.58;3.28;;;17.10;99.90;;;;;;7395175;19;20357;-84
2022/05/11 04:03:48;;;;;;;4.03;3.63;;;17.10;99.90;;;;;;7393994;19;20635;-80
2022/05/11 04:06:14;;;;;;;3.97;3.60;;;17.10;99.90;;;;;;7393232;19;20433;-84
2022/05/11 04:08:39;;;;;;;4.30;3.90;;;17.00;99.90;;;;;;7392734;19;20317;-82
2022/05/11 04:11:05;;;;;;;4.23;3.83;;;17.00;99.90;;;;;;7393776;19;20876;-84
2022/05/11 04:13:30;;;;;;;3.95;3.65;;;16.90;99.90;;;;;;7391355;19;20956;-81
2022/05/11 04:15:56;;;;;;;3.65;3.35;;;17.00;99.90;;;;;;7388858;19;20297;-81
2022/05/11 04:18:22;;;;;;;3.90;3.60;;;17.00;99.90;;;;;;7389049;19;20361;-81
2022/05/11 04:20:48;;;;;;;3.95;3.65;;;17.00;99.90;;;;;;7391033;19;20805;-81
2022/05/11 04:23:14;;;;;;;3.50;3.22;;;17.10;99.90;;;;;;7390786;19;20329;-84
2022/05/11 04:25:39;;;;;;;3.70;3.23;;;17.10;99.90;;;;;;7390181;19;20362;-81
2022/05/11 04:28:09;;;;;;;3.60;3.27;;;17.10;99.90;;;;;;7389495;19;20345;-86
2022/05/11 04:30:35;;;;;;;7.90;3.88;;;17.20;99.90;;;;;;7391655;19;20833;-85
2022/05/11 04:33:00;;;;;;;4.50;4.10;;;17.30;99.90;;;;;;7394173;19;20333;-83
2022/05/11 04:35:30;;;;;;;3.65;3.35;;;17.20;99.90;;;;;;7395271;19;21044;-83
2022/05/11 04:37:59;;;;;;;3.90;3.60;;;17.30;99.90;;;;;;7388922;19;20343;-79
2022/05/11 04:40:25;;;;;;;5.45;3.85;;;17.30;99.90;;;;;;7384935;19;20378;-84
2022/05/11 04:42:51;;;;;;;5.88;4.00;;;17.40;99.90;;;;;;7383938;19;20919;-80
2022/05/11 04:45:17;;;;;;;3.70;3.40;;;17.60;99.90;;;;;;7385433;19;20754;-83
2022/05/11 04:47:42;;;;;;;4.43;4.03;;;17.70;99.90;;;;;;7383997;19;20722;-82
2022/05/11 04:50:09;;;;;;;4.80;3.87;;;17.70;99.90;;;;;;7385470;19;20352;-83
2022/05/11 04:52:35;;;;;;;3.85;3.50;;;17.80;99.90;;;;;;7385973;19;20348;-79
2022/05/11 04:55:00;;;;;;;3.63;3.33;;;17.90;99.90;;;;;;7386132;19;20717;-81
2022/05/11 04:57:26;;;;;;;4.50;4.10;;;18.00;99.90;;;;;;7398275;19;20378;-86
2022/05/11 04:59:52;;;;;;;4.40;3.80;;;18.00;99.90;;;;;;7396364;19;20369;-81
2022/05/11 05:02:20;;;;;;;4.00;3.60;;;18.10;99.90;;;;;;7388708;19;20352;-80
2022/05/11 05:04:46;;;;;;;4.90;4.20;;;18.00;99.90;;;;;;7381994;19;20300;-78
2022/05/11 05:07:11;;;;;;;4.33;3.97;;;18.00;99.90;;;;;;7371579;19;20356;-80
2022/05/11 05:09:37;;;;;;;4.10;3.70;;;18.00;99.90;;;;;;7379744;19;20994;-81
2022/05/11 05:12:04;;;;;;;4.13;3.73;;;18.10;99.90;;;;;;7383766;19;20353;-80
2022/05/11 05:14:29;;;;;;;4.28;3.97;;;18.20;99.90;;;;;;7388791;19;20337;-82
2022/05/11 05:17:05;;;;;;;5.10;3.93;;;18.20;99.90;;;;;;7396289;19;20848;-84
2022/05/11 05:19:31;;;;;;;4.57;4.18;;;18.40;99.90;;;;;;7288871;19;2019171;-84
2022/05/11 05:21:57;;;;;;;4.30;3.90;;;18.50;99.90;;;;;;7392688;19;20336;-78
2022/05/11 05:24:23;;;;;;;5.60;4.00;;;18.60;99.90;;;;;;7393620;19;20417;-78
2022/05/11 05:26:49;;;;;;;6.43;4.22;;;18.70;99.90;;;;;;7399156;19;20315;-81
2022/05/11 05:31:59;;;;;;;4.57;3.65;;;18.90;99.90;;;;;;7397509;19;20727;-84
2022/05/11 05:34:29;;;;;;;4.57;3.92;;;18.90;99.90;;;;;;7398399;19;20381;-83
2022/05/11 05:36:54;;;;;;;4.80;4.40;;;19.00;99.90;;;;;;7396626;19;20344;-81
2022/05/11 05:39:20;;;;;;;5.20;4.70;;;19.00;99.90;;;;;;7392957;19;21131;-78
2022/05/11 05:41:45;;;;;;;4.95;4.47;;;19.10;99.90;;;;;;7396139;19;20312;-81
2022/05/11 05:44:11;;;;;;;5.35;4.70;;;19.20;99.90;;;;;;7400035;19;20376;-86
2022/05/11 05:46:36;;;;;;;4.60;4.20;;;19.20;99.90;;;;;;7397366;19;20408;-79
2022/05/11 05:49:02;;;;;;;4.75;4.25;;;19.20;99.90;;;;;;7392586;19;20662;-80
2022/05/11 05:51:28;;;;;;;4.72;4.30;;;19.20;99.90;;;;;;7395193;19;20341;-81
2022/05/11 05:53:55;;;;;;;4.70;4.30;;;19.40;99.90;;;;;;7395018;19;20393;-78
2022/05/11 05:56:20;;;;;;;4.63;4.22;;;19.50;99.90;;;;;;7397553;19;20711;-80
2022/05/11 05:58:46;;;;;;;3.80;3.50;;;19.60;99.90;;;;;;7394631;19;20344;-84
2022/05/11 06:01:12;;;;;;;4.80;4.20;;;19.80;99.90;;;;;;7396084;19;20362;-79
2022/05/11 06:03:37;;;;;;;4.88;4.40;;;19.90;99.90;;;;;;7401676;19;20321;-80
2022/05/11 06:06:04;;;;;;;5.30;4.50;;;19.90;99.90;;;;;;7398605;19;20353;-79
2022/05/11 06:08:30;;;;;;;4.60;4.20;;;19.90;99.90;;;;;;7399464;19;20345;-83
2022/05/11 06:10:55;;;;;;;4.80;4.40;;;19.80;99.90;;;;;;7397055;19;20337;-84
2022/05/11 06:13:22;;;;;;;5.05;4.57;;;19.90;99.90;;;;;;7400982;19;20321;-89
2022/05/11 06:15:52;;;;;;;5.23;4.73;;;19.90;99.90;;;;;;7391653;19;21105;-78
2022/05/11 06:18:18;;;;;;;4.93;4.53;;;19.80;99.90;;;;;;7387333;19;20336;-84
2022/05/11 06:20:43;;;;;;;4.90;4.45;;;19.90;99.90;;;;;;7389766;19;20320;-83
2022/05/11 06:23:09;;;;;;;5.10;4.50;;;20.00;99.90;;;;;;7388764;19;20333;-81
2022/05/11 06:25:37;;;;;;;5.50;5.00;;;20.20;99.90;;;;;;7390918;19;20486;-80
2022/05/11 06:28:03;;;;;;;4.80;4.40;;;20.20;99.90;;;;;;7389639;19;20345;-80
2022/05/11 06:30:29;;;;;;;6.43;5.03;;;20.20;99.90;;;;;;7389695;19;20305;-79
2022/05/11 06:32:55;;;;;;;4.60;4.20;;;19.80;99.90;;;;;;7392518;19;20356;-82
2022/05/11 06:35:20;;;;;;;5.90;4.77;;;19.80;99.90;;;;;;7386757;19;20348;-84
2022/05/11 06:37:46;;;;;;;5.53;5.03;;;19.90;99.90;;;;;;7386592;19;20347;-82
2022/05/11 06:40:13;;;;;;;4.30;3.93;;;19.90;99.90;;;;;;7379578;19;20801;-84
2022/05/11 06:42:39;;;;;;;5.30;4.50;;;20.10;99.90;;;;;;7389027;19;20317;-82
2022/05/11 06:45:05;;;;;;;4.82;4.43;;;20.20;99.90;;;;;;7390231;19;20735;-85
2022/05/11 06:47:32;;;;;;;5.35;4.38;;;20.40;99.90;;;;;;7387002;19;20753;-84
2022/05/11 06:49:58;;;;;;;4.15;3.85;;;20.50;99.90;;;;;;7389900;19;20333;-77
2022/05/11 06:52:23;;;;;;;4.57;4.18;;;20.70;99.90;;;;;;7390645;19;20386;-81
2022/05/11 07:00:18;;;;;;;4.30;3.90;;;21.00;99.90;;;;;;7393372;19;20357;-82
2022/05/11 07:02:43;;;;;;;5.03;4.03;;;21.10;99.90;;;;;;7388495;19;20321;-78
2022/05/11 07:05:09;;;;;;;5.40;4.55;;;21.20;99.90;;;;;;7386625;19;20320;-79
2022/05/11 07:07:35;;;;;;;6.70;4.47;;;21.20;99.90;;;;;;7383102;19;24241;-81
2022/05/11 07:10:01;;;;;;;4.63;4.23;;;21.30;99.90;;;;;;7379676;19;21273;-84
2022/05/11 07:12:32;;;;;;;10.30;5.10;;;21.50;99.90;;;;;;7385701;19;20304;-79
2022/05/11 07:14:59;;;;;;;4.43;4.03;;;21.50;99.90;;;;;;7383524;19;20343;-80
2022/05/11 07:17:35;;;;;;;4.80;4.32;;;21.60;99.90;;;;;;7381480;19;20349;-82
2022/05/11 07:20:08;;;;;;;5.03;4.60;;;21.80;99.90;;;;;;7381486;19;20340;-81
2022/05/11 07:22:33;;;;;;;4.72;4.32;;;21.70;99.90;;;;;;7388301;19;20312;-82
2022/05/11 07:24:59;;;;;;;6.33;4.70;;;21.80;99.90;;;;;;7393739;19;20320;-81
2022/05/11 07:27:25;;;;;;;4.53;4.13;;;22.00;99.90;;;;;;7391578;19;20348;-85
2022/05/11 07:29:51;;;;;;;7.43;4.47;;;22.20;99.90;;;;;;7392270;19;20391;-84
2022/05/11 07:32:17;;;;;;;4.47;4.07;;;22.50;99.90;;;;;;7392350;19;20345;-84
2022/05/11 07:34:42;;;;;;;5.15;4.65;;;22.60;99.90;;;;;;7393596;19;20312;-84
2022/05/11 07:37:08;;;;;;;4.75;4.22;;;22.70;99.90;;;;;;7392382;19;20312;-87
2022/05/11 07:39:34;;;;;;;4.87;4.37;;;22.90;99.90;;;;;;7391010;19;20345;-85
2022/05/11 07:42:00;;;;;;;5.75;4.50;;;23.10;99.90;;;;;;7390062;19;20868;-87
2022/05/11 07:44:26;;;;;;;4.75;4.30;;;23.20;99.90;;;;;;7395426;19;20309;-84
2022/05/11 07:46:52;;;;;;;4.77;4.37;;;23.40;99.90;;;;;;7394777;19;20376;-84
2022/05/11 07:49:18;;;;;;;4.63;4.23;;;23.40;99.90;;;;;;7391278;19;20345;-80
2022/05/11 07:51:45;;;;;;;4.50;4.10;;;23.50;99.90;;;;;;7390405;19;20309;-83
2022/05/11 07:54:11;;;;;;;5.47;4.30;;;23.60;99.90;;;;;;7388004;19;20667;-82
2022/05/11 08:02:06;;;;;;;4.65;4.15;;;23.80;99.90;;;;;;7387583;19;20348;-82
2022/05/11 08:04:31;;;;;;;4.45;4.05;;;23.90;99.90;;;;;;7389392;19;20345;-87
2022/05/11 08:06:58;;;;;;;4.63;3.53;;;24.00;99.90;;;;;;7388330;19;20372;-81
2022/05/11 08:09:24;;;;;;;5.43;3.75;;;24.10;99.90;;;;;;7386442;19;20950;-83
2022/05/11 08:11:52;;;;;;;4.22;3.83;;;24.10;99.90;;;;;;7386776;19;20328;-85
2022/05/11 08:14:18;;;;;;;4.22;3.90;;;24.30;99.90;;;;;;7387927;19;20368;-83
2022/05/11 08:16:43;;;;;;;4.43;3.88;;;24.20;99.90;;;;;;7385439;19;20316;-86
2022/05/11 08:19:09;;;;;;;3.97;3.57;;;24.40;99.90;;;;;;7386479;19;20339;-86
2022/05/11 08:21:36;;;;;;;5.32;3.72;;;24.60;99.90;;;;;;7386748;19;20860;-86
2022/05/11 08:24:01;;;;;;;4.22;3.83;;;24.80;99.90;;;;;;7384274;19;20356;-83
2022/05/11 08:26:27;;;;;;;4.33;3.70;;;24.90;99.90;;;;;;7388226;19;20335;-83
2022/05/11 08:28:53;;;;;;;4.37;3.50;;;24.90;99.90;;;;;;7384434;19;20337;-85
2022/05/11 08:34:03;;;;;;;3.95;3.58;;;25.30;99.90;;;;;;7389065;19;20337;-81
2022/05/11 08:36:28;;;;;;;3.43;3.13;;;25.40;99.90;;;;;;7388692;19;20324;-86
2022/05/11 08:38:55;;;;;;;4.20;3.80;;;25.40;99.90;;;;;;7383504;19;20352;-81
2022/05/11 08:41:56;;;;;;;3.78;3.47;;;25.50;99.90;;;;;;7385038;19;20332;-84
2022/05/11 08:44:32;;;;;;;4.45;3.10;;;25.60;99.90;;;;;;7284670;19;2004985;-80
2022/05/11 08:47:12;;;;;;;3.70;3.40;;;25.60;99.90;;;;;;7284684;19;2018339;-83
2022/05/11 08:49:52;;;;;;;3.75;3.38;;;25.80;99.90;;;;;;7286807;19;2004385;-81
2022/05/11 08:52:23;;;;;;;3.10;2.90;;;25.90;99.90;;;;;;7286794;19;2019203;-83
2022/05/11 08:54:50;;;;;;;3.50;3.20;;;26.20;99.90;;;;;;7392114;19;20313;-82
2022/05/11 08:57:26;;;;;;;3.83;3.53;;;26.30;99.90;;;;;;7392185;19;20345;-80
2022/05/11 08:59:57;;;;;;;4.25;3.20;;;26.20;99.10;;;;;;7386569;19;21934;-80
2022/05/11 09:02:34;;;;;;;3.40;3.10;;;26.30;99.50;;;;;;7390296;19;20324;-79
2022/05/11 09:05:01;;;;;;;4.78;3.28;;;25.80;97.70;;;;;;7390725;19;20328;-82
2022/05/11 09:07:27;;;;;;;3.97;3.38;;;26.10;98.40;;;;;;7390452;19;20352;-82
2022/05/11 09:09:53;;;;;;;3.35;3.05;;;26.20;97.40;;;;;;7388745;19;20415;-81
2022/05/11 09:12:19;;;;;;;12.95;3.95;;;26.20;96.90;;;;;;7391588;19;20300;-81
2022/05/11 09:14:56;;;;;;;3.05;2.75;;;26.60;98.40;;;;;;7394867;19;20296;-80
2022/05/11 09:17:40;;;;;;;3.33;3.03;;;26.90;96.50;;;;;;7292430;19;2004401;-80
2022/05/11 09:20:07;;;;;;;3.55;3.20;;;27.10;95.90;;;;;;7293177;19;2019972;-79
2022/05/11 09:22:34;;;;;;;8.13;3.38;;;27.40;96.60;;;;;;7396224;19;20346;-80
2022/05/11 09:25:04;;;;;;;3.88;3.10;;;27.40;95.30;;;;;;7397869;19;20506;-78
2022/05/11 09:27:34;;;;;;;3.15;2.92;;;27.60;95.50;;;;;;7393279;19;20422;-80
2022/05/11 09:30:01;;;;;;;3.67;2.95;;;27.80;95.60;;;;;;7396549;19;20740;-80
2022/05/11 09:32:38;;;;;;;3.40;3.10;;;28.10;95.80;;;;;;7393409;19;20648;-78
2022/05/11 09:35:17;;;;;;;4.68;3.03;;;28.20;94.40;;;;;;7393071;19;20332;-78
2022/05/11 09:37:44;;;;;;;3.85;3.55;;;28.30;92.70;;;;;;7394032;19;20391;-79
2022/05/11 09:40:17;;;;;;;3.37;3.07;;;28.30;93.10;;;;;;7395508;19;20337;-79
2022/05/11 09:43:00;;;;;;;3.17;2.92;;;28.30;92.80;;;;;;7394357;19;20311;-79
2022/05/11 09:45:43;;;;;;;3.10;2.80;;;28.30;92.50;;;;;;7394567;19;20719;-78
2022/05/11 09:48:16;;;;;;;2.92;2.45;;;28.50;92.50;;;;;;7394418;19;20881;-78
2022/05/11 09:50:42;;;;;;;2.55;2.35;;;28.80;90.20;;;;;;7394853;19;20317;-79
2022/05/11 09:53:29;;;;;;;3.00;2.70;;;29.20;91.10;;;;;;7393658;19;20322;-79
2022/05/11 09:55:55;;;;;;;3.30;2.60;;;29.20;88.20;;;;;;7293176;19;2004242;-79
2022/05/11 09:58:29;;;;;;;2.60;2.40;;;29.30;87.50;;;;;;7394896;19;20925;-79
2022/05/11 10:01:07;;;;;;;2.72;2.53;;;29.50;87.90;;;;;;7294983;19;2004715;-79
2022/05/11 10:03:32;;;;;;;3.25;2.50;;;29.60;86.20;;;;;;7395362;19;20630;-78
2022/05/11 10:05:58;;;;;;;3.63;2.65;;;29.70;83.10;;;;;;7393952;19;20339;-79
2022/05/11 10:08:34;;;;;;;3.80;2.60;;;29.60;83.00;;;;;;7394751;19;20321;-78
2022/05/11 10:11:01;;;;;;;3.13;2.70;;;29.50;84.60;;;;;;7291217;19;2010399;-79
2022/05/11 10:13:35;;;;;;;2.58;2.38;;;29.80;81.90;;;;;;7397040;19;20297;-77
2022/05/11 10:22:09;;;;;;;2.85;2.55;;;29.80;78.40;;;;;;7395904;19;20840;-79
2022/05/11 10:24:45;;;;;;;3.67;2.40;;;30.30;79.70;;;;;;7296087;19;2004401;-79
2022/05/11 10:27:58;;;;;;;2.47;2.28;;;30.60;80.10;;;;;;7292942;19;2006078;-79
2022/05/11 10:30:32;;;;;;;2.60;2.40;;;30.30;75.20;;;;;;7186465;19;2005294;-78
2022/05/11 10:33:12;;;;;;;2.67;2.47;;;30.60;77.10;;;;;;7396256;19;20643;-79
2022/05/11 10:35:46;;;;;;;5.88;2.58;;;30.60;76.00;;;;;;7291209;19;2004493;-79
2022/05/11 10:38:18;;;;;;;2.50;2.30;;;30.80;74.60;;;;;;7393241;19;20300;-80
2022/05/11 10:40:54;;;;;;;2.58;2.38;;;30.70;75.30;;;;;;7394846;19;20325;-79
2022/05/11 10:43:54;;;;;;;2.80;2.38;;;31.20;74.20;;;;;;7394515;19;20420;-78
2022/05/11 10:46:56;;;;;;;2.60;2.40;;;31.20;70.30;;;;;;7290023;19;2004649;-79
2022/05/11 10:49:27;;;;;;;2.97;2.40;;;30.60;72.30;;;;;;7288452;19;2004372;-77
2022/05/11 10:52:25;;;;;;;2.67;2.47;;;30.70;71.10;;;;;;7388520;19;20852;-79
2022/05/11 10:54:50;;;;;;;2.23;2.00;;;30.80;70.50;;;;;;7286463;19;2005127;-78
2022/05/11 10:57:23;;;;;;;4.60;2.45;;;31.20;72.30;;;;;;7392429;19;20335;-78
2022/05/11 11:00:07;;;;;;;2.83;2.50;;;31.60;71.20;;;;;;7396192;19;20313;-78
2022/05/11 11:02:56;;;;;;;2.60;2.40;;;31.60;69.20;;;;;;7288959;19;2004604;-78
2022/05/11 11:05:25;;;;;;;2.93;2.37;;;31.70;69.00;;;;;;7391271;19;20667;-78
2022/05/11 11:08:30;;;;;;;2.63;2.17;;;31.20;69.00;;;;;;7392819;19;20339;-77
2022/05/11 11:11:09;;;;;;;3.60;1.95;;;31.10;69.90;;;;;;7284547;19;2019039;-78
2022/05/11 11:14:00;;;;;;;2.00;1.90;;;30.50;69.00;;;;;;7386855;19;20316;-78
2022/05/11 11:16:29;;;;;;;2.30;2.10;;;30.00;69.50;;;;;;7389605;19;20343;-77
2022/05/11 11:18:55;;;;;;;2.50;2.20;;;29.70;69.10;;;;;;7390868;19;20341;-78
2022/05/11 11:21:22;;;;;;;2.67;2.30;;;29.70;71.10;;;;;;7390626;19;20309;-78
2022/05/11 11:24:22;;;;;;;2.65;2.30;;;30.40;69.40;;;;;;7390063;19;20321;-78
2022/05/11 11:26:50;;;;;;;2.30;2.10;;;31.10;67.30;;;;;;7288640;19;2004315;-77
2022/05/11 11:29:19;;;;;;;5.18;2.20;;;31.70;67.20;;;;;;7389587;19;20336;-78
2022/05/11 11:32:07;;;;;;;6.45;2.10;;;32.10;64.40;;;;;;7389726;19;20330;-77
2022/05/11 11:35:17;;;;;;;2.20;2.00;;;31.20;64.70;;;;;;7287346;19;2004259;-78
2022/05/11 11:37:43;;;;;;;3.85;2.30;;;30.70;65.20;;;;;;7287405;19;2004256;-79
2022/05/11 11:40:21;;;;;;;2.10;2.00;;;30.90;67.10;;;;;;7392372;19;20316;-78
2022/05/11 11:42:47;;;;;;;2.85;2.00;;;31.10;65.70;;;;;;7288910;19;2005821;-77
2022/05/11 11:45:26;;;;;;;2.70;1.90;;;31.10;63.90;;;;;;7389816;19;20349;-79
2022/05/11 11:48:16;;;;;;;3.53;2.50;;;31.00;63.80;;;;;;7389920;19;20851;-78
2022/05/11 11:50:43;;;;;;;2.42;2.20;;;30.80;64.10;;;;;;7289048;19;2004665;-78
2022/05/11 11:53:21;;;;;;;4.22;2.28;;;30.60;66.20;;;;;;7390446;19;20444;-79
2022/05/11 11:55:47;;;;;;;2.33;2.13;;;30.90;63.40;;;;;;7389207;19;20420;-77
2022/05/11 11:58:19;;;;;;;4.03;2.27;;;30.60;64.30;;;;;;7391234;19;20317;-78
2022/05/11 12:00:47;;;;;;;3.57;2.20;;;30.10;65.30;;;;;;7388772;19;20313;-77
2022/05/11 12:03:24;;;;;;;2.20;2.10;;;30.10;66.30;;;;;;7390787;19;20304;-77
2022/05/11 12:15:01;;;;;;;4.67;2.30;;;30.50;66.50;;;;;;7389876;19;20337;-77
2022/05/11 12:17:01;;;;;;;4.78;2.40;;;29.80;63.90;;;;;;7286440;19;2004525;-76
2022/05/11 12:19:37;;;;;;;2.88;2.28;;;29.30;64.80;;;;;;7391780;19;20647;-78
2022/05/11 12:22:12;;;;;;;2.53;2.33;;;30.10;65.70;;;;;;7388809;19;20400;-78
2022/05/11 12:25:00;;;;;;;2.50;2.30;;;30.20;63.80;;;;;;7390063;19;20316;-78
2022/05/11 12:27:33;;;;;;;2.40;2.20;;;30.40;65.80;;;;;;7288760;19;2004505;-78
2022/05/11 12:30:05;;;;;;;4.65;2.30;;;30.90;63.30;;;;;;7389770;19;20309;-78
2022/05/11 12:32:35;;;;;;;2.80;2.10;;;30.80;63.20;;;;;;7390415;19;20325;-77
2022/05/11 12:35:10;;;;;;;2.30;2.10;;;31.10;64.60;;;;;;7392684;19;20397;-77
2022/05/11 12:37:37;;;;;;;2.88;2.25;;;31.00;61.30;;;;;;7393642;19;20374;-77
2022/05/11 12:40:14;;;;;;;4.22;2.33;;;30.80;61.30;;;;;;7392329;19;20364;-77
2022/05/11 12:42:41;;;;;;;2.38;2.17;;;30.30;64.20;;;;;;7290566;19;2004639;-76
2022/05/11 12:45:19;;;;;;;2.30;2.17;;;30.00;65.00;;;;;;7391740;19;20364;-78
2022/05/11 12:47:47;;;;;;;2.60;2.40;;;30.00;62.60;;;;;;7393463;19;20404;-78
2022/05/11 12:50:22;;;;;;;6.18;2.35;;;30.80;66.80;;;;;;7397478;19;20293;-77
2022/05/11 12:53:17;;;;;;;2.63;2.28;;;30.70;62.30;;;;;;7394865;19;20323;-76
2022/05/11 12:55:50;;;;;;;3.60;2.30;;;30.40;62.50;;;;;;7392253;19;20375;-78
2022/05/11 12:58:24;;;;;;;2.70;2.47;;;30.50;61.80;;;;;;7391853;19;20309;-77
2022/05/11 13:01:00;;;;;;;2.42;2.22;;;30.40;62.50;;;;;;7390700;19;20739;-79
2022/05/11 13:03:33;;;;;;;2.45;2.25;;;30.20;62.90;;;;;;7390556;19;20692;-78
2022/05/11 13:06:20;;;;;;;4.53;2.20;;;30.70;61.20;;;;;;7354605;19;20394;-78
2022/05/11 13:08:47;;;;;;;3.47;2.25;;;31.10;59.90;;;;;;7389767;19;20315;-77
2022/05/11 13:11:15;;;;;;;6.20;2.35;;;31.00;60.20;;;;;;7389502;19;20305;-78
2022/05/11 13:13:42;;;;;;;3.42;2.28;;;30.60;60.90;;;;;;7391231;19;20665;-77
2022/05/11 13:16:35;;;;;;;4.43;2.10;;;30.00;60.10;;;;;;7388427;19;20352;-78
2022/05/11 13:19:22;;;;;;;5.60;2.40;;;30.00;61.90;;;;;;7285423;19;2004502;-78
2022/05/11 13:21:47;;;;;;;3.80;2.53;;;29.80;63.70;;;;;;7388927;19;20363;-78
2022/05/11 13:24:13;;;;;;;2.60;2.40;;;30.30;63.40;;;;;;7389083;19;20862;-80
2022/05/11 13:26:44;;;;;;;2.70;2.45;;;30.00;63.50;;;;;;7390778;19;20328;-78
2022/05/11 13:29:18;;;;;;;2.97;2.47;;;30.20;63.00;;;;;;7389167;19;21016;-77
2022/05/11 13:31:44;;;;;;;6.80;2.60;;;30.70;62.80;;;;;;7387065;19;20872;-78
2022/05/11 13:34:28;;;;;;;2.58;2.38;;;30.80;61.20;;;;;;7392142;19;20320;-78
2022/05/11 13:36:54;;;;;;;2.20;2.10;;;30.50;59.70;;;;;;7293160;19;2004230;-79